Terminal Aerodrome Forecast
Issued by NWS

Home | Current Version | Previous Version | Graphics & Text | Print | Product List | Glossary On
Versions: 1 2 3 4 5 6 7 8 9 10 11 12 13 14 15 16 17 18 19 20 21 22 23 24 25 26 27 28 29
000
FTUS43 KTOP 240200 AAA
TAFMHK
TAF AMD
KMHK 240237Z 2403/2424 12010G22KT 6SM -RA SCT015 BKN050
     FM240700 13009KT P6SM -SHRA BKN007
     FM241300 16009KT P6SM BKN010
     FM242000 19011KT P6SM BKN035
      TEMPO 2421/2424 4SM -TSRA OVC015CB=

USA.gov is the U.S. government's official web portal to all federal, state and local government web resources and services.